Aviation Digital Data Service (ADDS)

Output produced by METARs form (0519 UTC 28 February 2015)
found at http://www.aviationweather.gov/adds/metars/
 
KCXY 280456Z AUTO 30008KT 10SM CLR M08/M19 A3066 RMK AO2 SLP389 T10781194 410281089
KCXY 280356Z AUTO 29008KT 10SM CLR M08/M19 A3065 RMK AO2 SLP387 T10781189
KCXY 280256Z AUTO 30010KT 10SM CLR M07/M18 A3062 RMK AO2 SLP378 T10721183 51031
KCXY 280156Z AUTO 30008KT 10SM CLR M07/M18 A3059 RMK AO2 SLP367 T10671183
KCXY 280056Z 29009KT 10SM CLR M06/M17 A3057 RMK AO2 SLP360 T10561172
KCXY 272356Z 31013KT 10SM CLR M04/M17 A3053 RMK AO2 SLP347 T10441167 11028 21044 53022
KCXY 272256Z 32005KT 10SM CLR M04/M16 A3050 RMK AO2 SLP334 T10391156
KCXY 272156Z 30010KT 10SM CLR M03/M15 A3049 RMK AO2 SLP330 T10331150
KCXY 272056Z 29009KT 10SM FEW050 M03/M14 A3047 RMK AO2 SLP324 T10281144 53012
KCXY 271956Z 29011KT 10SM FEW045 M03/M14 A3045 RMK AO2 SLP320 T10281139
KCXY 271856Z 32010KT 10SM CLR M03/M14 A3044 RMK AO2 SLP314 T10331139
KCXY 271756Z 35008KT 10SM SCT045 M04/M15 A3043 RMK AO2 SLP312 T10391150 11039 21089 58002
KCXY 271656Z 35008KT 10SM SCT045 M05/M15 A3045 RMK AO2 SLP318 T10501150
KCXY 271556Z 35009KT 10SM CLR M06/M16 A3044 RMK AO2 SLP316 T10611156
KCXY 271456Z 33007KT 10SM CLR M07/M15 A3044 RMK AO2 SLP314 T10671150 51031
KCXY 271356Z 34006KT 10SM CLR M07/M15 A3042 RMK AO2 SLP307 T10721150
KCXY 271256Z 36005KT 10SM FEW045 M09/M16 A3039 RMK AO2 SLP299 T10891156
KCXY 271156Z 33006KT 10SM FEW045 M09/M14 A3035 RMK AO2 SLP283 60000 T10891144 11033 21089 51036
KCXY 271056Z AUTO 34007KT 10SM OVC044 M08/M13 A3031 RMK AO2 SNB07E09 SLP271 P0000 T10781133
KCXY 270956Z AUTO 33008KT 10SM OVC030 M07/M12 A3028 RMK AO2 SNB17E44 SLP260 P0000 T10721122
KCXY 270935Z AUTO 35006KT 6SM -SN FEW027 OVC033 M07/M12 A3027 RMK AO2 SNB17 P0000 T10671117
KCXY 270924Z AUTO 35008KT 6SM -SN OVC029 M07/M11 A3026 RMK AO2 SNB17 P0000 T10671111
KCXY 270916Z AUTO 35007KT 8SM SCT026 BKN031 OVC039 M07/M11 A3025 RMK AO2 T10671111
KCXY 270856Z AUTO 33008KT 6SM HZ BKN025 OVC038 M06/M11 A3024 RMK AO2 SLP246 T10611106 53024
KCXY 270756Z AUTO 33006KT 10SM BKN024 OVC044 M06/M11 A3020 RMK AO2 SLP235 T10561106
KCXY 270726Z AUTO 33005KT 10SM SCT027 OVC043 M05/M10 A3020 RMK AO2 T10501100
KCXY 270656Z AUTO 34004KT 10SM OVC028 M04/M11 A3019 RMK AO2 SLP228 T10441106
KCXY 270645Z AUTO 32005KT 10SM BKN029 OVC043 M04/M11 A3019 RMK AO2 T10441106
KCXY 270556Z AUTO 32004KT 10SM OVC050 M03/M11 A3016 RMK AO2 SLP220 T10331106 11028 21039 53013
KCXY 270456Z AUTO 00000KT 10SM BKN030 BKN038 BKN050 M04/M11 A3015 RMK AO2 SLP215 T10391106 410061056
KCXY 270356Z AUTO 33004KT 10SM BKN045 OVC055 M03/M11 A3012 RMK AO2 SLP207 T10281106
KCXY 270256Z AUTO 29003KT 10SM SCT035 BKN050 OVC060 M03/M10 A3013 RMK AO2 SLP208 T10281100 51022
KCXY 270156Z AUTO 29005KT 10SM BKN037 OVC055 M03/M10 A3011 RMK AO2 SLP202 T10281100
KCXY 270056Z 29004KT 10SM FEW044 OVC050 M03/M10 A3009 RMK AO2 SLP194 T10281100
KCXY 262356Z 30005KT 10SM OVC044 M03/M09 A3006 RMK AO2 SLP185 T10281094 11006 21028 53026
KCXY 262256Z 33005KT 10SM FEW095 M02/M09 A3002 RMK AO2 SLP169 T10221089
KCXY 262156Z 33005KT 10SM BKN055 OVC065 M02/M08 A2999 RMK AO2 SLP160 T10221083
KCXY 262056Z 33007KT 10SM BKN090 M02/M09 A2998 RMK AO2 SLP158 T10171089 53016
KCXY 261956Z 32007KT 10SM OVC090 M02/M09 A2995 RMK AO2 SLP149 T10171089
KCXY 261856Z 33005KT 10SM OVC095 M01/M09 A2993 RMK AO2 SLP141 T10111089
KCXY 261756Z 09007KT 10SM CLR M02/M08 A2994 RMK AO2 SLP142 60000 T10221083 11022 21056 58019